Phillip Island Penguin, Victoria

10:09 PM AEST on August 28, 2016 (GMT +1000)
Island Dreams Cowes Phillip Island | | Change Station

Elev 56 ft 38.46 °S, 145.21 °E | Updated 8 seconds ago

Clear
Clear
49.6 °F
Feels Like 50 °F
N
0.0
Wind Variable Wind from SE
Gusts 0.0 mph

Today
High -- | Low -- °F
--% Chance of Precip.
Yesterday
High -- | Low -- °F
Precip. -- in
Pressure 30.15 in
Visibility 6.2 miles
Clouds
Windchill 50 °F
Dew Point 49 °F
Humidity 97%
Rainfall 0.00 in
Snow Depth Not available.
6:47 AM 5:54 PM
Waning Crescent, 16% visible
METAR YMAV 281200Z AUTO 00000KT 9999 // NCD 09/06 Q1021
Pressure 30.15 in
Visibility 6.2 miles
Clouds
Windchill 50 °F
Dew Point 49 °F
Humidity 97%
Rainfall 0.00 in
Snow Depth Not available.
6:47 AM 5:54 PM
Waning Crescent, 16% visible
METAR YMAV 281200Z AUTO 00000KT 9999 // NCD 09/06 Q1021

10-Day Weather Forecast

Almanac

Astronomy

Aug. 28, 2016 Rise Set
Actual Time
Civil Twilight
Nautical Twilight
Astronomical Twilight
Moon
Length of Visible Light
Length of Day
Tomorrow will be .
, % of the Moon is Illuminated

Today's Extremes

Country Highs Country Lows

Community

WunderPhotos

Upload Photos

1,935,552 photos uploaded!

WunderBlog® & News

Nearby

Air Quality

  Air Quality AQ Index Pollutant
Not available.

Snow Depth

Station Depth Elevation

Earthquake Activity

City Distance Mag. Time & Date
Minimum magnitude displayed is 2.5.

Coastal Water Temperatures

Place Temperature

Stations

Nearby Weather Stations

Station Location Temp. Windchill Dew Point Humidity Wind Precip. Elev Updated Type